createdAt,value
2022-10-24T00:00:42.817Z,52.29
2022-10-24T00:03:10.564Z,52.98
2022-10-24T00:05:41.011Z,51.98
2022-10-24T00:08:08.215Z,50.87
2022-10-24T00:10:36.626Z,51.25
2022-10-24T00:13:04.087Z,52.91
2022-10-24T00:15:31.254Z,51.76
2022-10-24T00:17:58.681Z,51.16
2022-10-24T00:20:25.842Z,52.41
2022-10-24T00:22:53.131Z,52.72
2022-10-24T00:25:20.582Z,53.22
2022-10-24T00:27:47.719Z,51.94
2022-10-24T00:30:14.837Z,52.95
2022-10-24T00:32:42.617Z,51.52
2022-10-24T00:35:10.226Z,51.54
2022-10-24T00:37:37.377Z,51.70
2022-10-24T00:40:06.414Z,53.90
2022-10-24T00:42:33.545Z,55.24
2022-10-24T00:45:01.414Z,54.66
2022-10-24T00:47:28.908Z,55.40
2022-10-24T00:50:02.595Z,55.78
2022-10-24T00:52:34.342Z,55.98
2022-10-24T00:55:01.573Z,54.08
2022-10-24T00:57:34.346Z,55.27
2022-10-24T01:00:04.761Z,56.48
2022-10-24T01:02:32.067Z,57.63
2022-10-24T01:04:59.374Z,56.06
2022-10-24T01:07:29.824Z,54.73
2022-10-24T01:10:15.543Z,56.42
2022-10-24T01:12:46.710Z,54.25
2022-10-24T01:15:23.392Z,57.07
2022-10-24T01:17:50.761Z,56.41
2022-10-24T01:20:22.829Z,59.28
2022-10-24T01:22:57.811Z,57.34
2022-10-24T01:25:32.906Z,57.82
2022-10-24T01:28:11.861Z,57.29
2022-10-24T01:30:43.494Z,56.69
2022-10-24T01:33:15.982Z,56.38
2022-10-24T01:35:44.725Z,55.12
2022-10-24T01:38:14.998Z,55.76
2022-10-24T01:40:51.407Z,53.46
2022-10-24T01:43:19.995Z,54.02
2022-10-24T01:45:47.410Z,56.66
2022-10-24T01:48:15.578Z,55.78
2022-10-24T01:50:43.522Z,53.62
2022-10-24T01:53:10.603Z,54.65
2022-10-24T01:55:37.757Z,54.19
2022-10-24T01:58:06.223Z,54.12
2022-10-24T02:00:33.473Z,53.99
2022-10-24T02:03:02.118Z,54.35
2022-10-24T02:05:33.859Z,55.91
2022-10-24T02:08:02.211Z,54.34
2022-10-24T02:10:30.789Z,54.08
2022-10-24T02:13:00.239Z,56.59
2022-10-24T02:15:28.338Z,57.35
2022-10-24T02:17:55.785Z,58.74
2022-10-24T02:20:25.447Z,57.11
2022-10-24T02:22:56.999Z,57.67
2022-10-24T02:25:25.238Z,57.12
2022-10-24T02:27:53.702Z,56.76
2022-10-24T02:30:21.991Z,59.49
2022-10-24T02:32:50.813Z,58.01
2022-10-24T02:35:18.787Z,57.80
2022-10-24T02:37:50.334Z,57.61
2022-10-24T02:40:18.760Z,60.16
2022-10-24T02:42:46.599Z,60.11
2022-10-24T02:45:13.786Z,60.91
2022-10-24T02:47:41.320Z,60.13
2022-10-24T02:50:09.027Z,59.53
2022-10-24T02:52:37.035Z,61.05
2022-10-24T02:55:04.848Z,60.61
2022-10-24T02:57:32.014Z,59.92
2022-10-24T02:59:59.148Z,57.59
2022-10-24T03:02:26.672Z,59.40
2022-10-24T03:04:53.826Z,57.93
2022-10-24T03:07:21.035Z,57.87
2022-10-24T03:09:48.528Z,61.09
2022-10-24T03:12:16.328Z,61.68
2022-10-24T03:14:43.839Z,62.34
2022-10-24T03:17:11.259Z,60.74
2022-10-24T03:19:38.640Z,62.05
2022-10-24T03:22:05.813Z,59.10
2022-10-24T03:24:43.854Z,59.91
2022-10-24T03:27:11.785Z,58.83
2022-10-24T03:29:39.209Z,58.59
2022-10-24T03:32:06.605Z,57.34
2022-10-24T03:34:33.797Z,61.50
2022-10-24T03:37:01.251Z,60.05
2022-10-24T03:39:28.383Z,57.98
2022-10-24T03:41:55.513Z,60.89
2022-10-24T03:44:22.969Z,59.72
2022-10-24T03:46:50.121Z,59.18
2022-10-24T03:49:17.277Z,58.84
2022-10-24T03:51:44.729Z,61.99
2022-10-24T03:54:15.238Z,59.57
2022-10-24T03:56:42.930Z,58.85
2022-10-24T03:59:10.610Z,56.38
2022-10-24T04:01:37.855Z,55.54
2022-10-24T04:04:05.417Z,55.68
2022-10-24T04:06:35.553Z,55.55
2022-10-24T04:09:04.096Z,54.84
2022-10-24T04:11:31.562Z,57.21
2022-10-24T04:13:59.015Z,55.66
2022-10-24T04:16:26.425Z,57.21
2022-10-24T04:18:53.876Z,56.70
2022-10-24T04:21:21.876Z,58.62
2022-10-24T04:23:49.311Z,57.62
2022-10-24T04:26:16.956Z,60.79
2022-10-24T04:28:44.368Z,61.20
2022-10-24T04:31:11.525Z,61.56
2022-10-24T04:33:39.059Z,59.99
2022-10-24T04:36:06.282Z,61.33
2022-10-24T04:38:33.788Z,59.40
2022-10-24T04:41:01.397Z,60.52
2022-10-24T04:43:28.533Z,60.85
2022-10-24T04:45:55.732Z,59.33
2022-10-24T04:48:23.187Z,59.60
2022-10-24T04:50:50.323Z,60.29
2022-10-24T04:53:17.461Z,60.78
2022-10-24T04:55:44.923Z,61.91
2022-10-24T04:58:12.029Z,60.53
2022-10-24T05:00:39.401Z,63.81
2022-10-24T05:03:06.860Z,63.80
2022-10-24T05:05:34.227Z,62.70
2022-10-24T05:08:01.560Z,60.30
2022-10-24T05:10:29.209Z,58.08
2022-10-24T05:12:56.368Z,58.21
2022-10-24T05:15:23.497Z,60.58
2022-10-24T05:17:51.120Z,58.47
2022-10-24T05:20:18.353Z,58.07
2022-10-24T05:22:45.878Z,57.20
2022-10-24T05:25:13.618Z,58.68
2022-10-24T05:27:40.875Z,57.51
2022-10-24T05:30:08.351Z,57.77
2022-10-24T05:32:38.764Z,55.37
2022-10-24T05:35:07.271Z,54.61
2022-10-24T05:37:34.482Z,55.43
2022-10-24T05:40:02.220Z,55.93
2022-10-24T05:42:29.411Z,54.99
2022-10-24T05:44:56.595Z,55.54
2022-10-24T05:47:25.796Z,54.85
2022-10-24T05:49:55.947Z,54.29
2022-10-24T05:52:23.744Z,53.25
2022-10-24T05:55:02.439Z,53.72
2022-10-24T05:57:34.366Z,55.47
2022-10-24T06:00:01.715Z,55.44
2022-10-24T06:02:39.512Z,55.30
2022-10-24T06:05:07.830Z,56.65
2022-10-24T06:07:35.524Z,55.47
2022-10-24T06:10:03.376Z,57.54
2022-10-24T06:12:31.054Z,57.10
2022-10-24T06:14:59.007Z,56.40
2022-10-24T06:17:26.399Z,56.98
2022-10-24T06:19:54.619Z,57.16
2022-10-24T06:22:24.975Z,57.63
2022-10-24T06:24:52.213Z,57.63
2022-10-24T06:27:19.806Z,60.72
2022-10-24T06:29:47.073Z,58.08
2022-10-24T06:32:34.989Z,58.02
2022-10-24T06:35:02.531Z,58.62
2022-10-24T06:37:32.000Z,56.94
2022-10-24T06:39:59.688Z,57.09
2022-10-24T06:42:27.221Z,58.68
2022-10-24T06:47:29.449Z,57.02
2022-10-24T06:50:14.140Z,55.20
2022-10-24T06:53:01.908Z,56.61
2022-10-24T06:55:29.244Z,57.68
2022-10-24T06:58:13.626Z,57.71
2022-10-24T07:00:41.059Z,59.09
2022-10-24T07:03:08.499Z,58.88
2022-10-24T07:05:37.166Z,59.53
2022-10-24T07:08:09.411Z,58.68
2022-10-24T07:10:38.086Z,58.08
2022-10-24T07:13:05.518Z,58.06
2022-10-24T07:15:32.821Z,58.00
2022-10-24T07:18:00.677Z,56.31
2022-10-24T07:20:27.909Z,55.89
2022-10-24T07:22:55.356Z,55.12
2022-10-24T07:25:23.027Z,54.48
2022-10-24T07:27:52.773Z,54.88
2022-10-24T07:30:20.215Z,55.48
2022-10-24T07:32:48.755Z,53.97
2022-10-24T07:35:16.366Z,56.24
2022-10-24T07:37:44.141Z,55.86
2022-10-24T07:40:12.456Z,56.42
2022-10-24T07:42:39.896Z,57.75
2022-10-24T07:45:07.577Z,56.28
2022-10-24T07:47:35.233Z,56.91
2022-10-24T07:50:02.486Z,57.93
2022-10-24T07:52:29.716Z,57.23
2022-10-24T07:54:58.219Z,58.08
2022-10-24T07:57:25.518Z,56.59
2022-10-24T07:59:52.792Z,55.40
2022-10-24T08:02:20.439Z,56.43
2022-10-24T08:04:48.019Z,56.74
2022-10-24T08:07:15.206Z,55.74
2022-10-24T08:09:44.763Z,55.46
2022-10-24T08:12:14.681Z,55.79
2022-10-24T08:14:41.993Z,57.40
2022-10-24T08:17:09.614Z,57.24
2022-10-24T08:19:37.160Z,58.10
2022-10-24T08:22:04.368Z,58.52
2022-10-24T08:24:31.604Z,57.47
2022-10-24T08:26:59.652Z,58.96
2022-10-24T08:29:26.924Z,59.20
2022-10-24T08:31:55.445Z,58.58
2022-10-24T08:34:23.388Z,55.86
2022-10-24T08:36:50.727Z,56.58
2022-10-24T08:39:18.040Z,57.42
2022-10-24T08:41:47.362Z,58.01
2022-10-24T08:44:30.917Z,57.53
2022-10-24T08:47:20.432Z,56.72
2022-10-24T08:49:50.755Z,57.78
2022-10-24T08:52:18.618Z,54.32
2022-10-24T08:54:45.927Z,56.16
2022-10-24T08:57:26.843Z,57.60
2022-10-24T08:59:55.181Z,55.90
2022-10-24T09:02:28.279Z,56.79
2022-10-24T09:04:57.049Z,56.67
2022-10-24T09:10:01.106Z,56.58
2022-10-24T09:12:28.526Z,59.93
2022-10-24T09:14:57.873Z,57.64
2022-10-24T09:17:28.534Z,59.52
2022-10-24T09:19:56.978Z,57.48
2022-10-24T09:22:25.154Z,57.55
2022-10-24T09:25:03.375Z,59.55
2022-10-24T09:27:32.726Z,58.57
2022-10-24T09:30:04.432Z,56.04
2022-10-24T09:32:32.694Z,56.21
2022-10-24T09:35:08.187Z,55.17
2022-10-24T09:37:44.426Z,53.49
2022-10-24T09:40:14.637Z,53.91
2022-10-24T09:42:44.576Z,53.44
2022-10-24T09:45:19.027Z,52.99
2022-10-24T09:47:46.946Z,52.77
2022-10-24T09:50:21.868Z,53.30
2022-10-24T09:52:50.327Z,52.33
2022-10-24T09:55:19.035Z,51.41
2022-10-24T09:57:46.517Z,51.77
2022-10-24T10:00:24.377Z,52.26
2022-10-24T10:03:02.022Z,51.48
2022-10-24T10:05:44.366Z,52.83
2022-10-24T10:08:12.956Z,52.71
2022-10-24T10:10:40.183Z,52.60
2022-10-24T10:13:18.668Z,52.60
2022-10-24T10:15:47.447Z,51.44
2022-10-24T10:18:22.387Z,51.92
2022-10-24T10:21:00.473Z,52.45
2022-10-24T10:23:29.560Z,51.24
2022-10-24T10:26:08.593Z,51.11
2022-10-24T10:28:36.908Z,51.54
2022-10-24T10:31:04.465Z,51.76
2022-10-24T10:34:00.899Z,50.50
2022-10-24T10:36:31.970Z,50.69
2022-10-24T10:39:18.083Z,52.06
2022-10-24T10:41:49.357Z,52.28
2022-10-24T10:44:35.444Z,54.50
2022-10-24T10:47:26.773Z,53.08
2022-10-24T10:49:55.175Z,51.24
2022-10-24T10:52:30.201Z,51.94
2022-10-24T10:55:09.449Z,51.20
2022-10-24T10:57:38.292Z,51.12
2022-10-24T11:00:13.526Z,53.32
2022-10-24T11:02:41.116Z,52.26
2022-10-24T11:05:14.559Z,51.40
2022-10-24T11:07:56.436Z,54.82
2022-10-24T11:10:25.380Z,52.31
2022-10-24T11:12:52.908Z,53.41
2022-10-24T11:15:21.147Z,51.61
2022-10-24T11:17:56.005Z,53.26
2022-10-24T11:20:31.873Z,52.41
2022-10-24T11:23:00.110Z,52.61
2022-10-24T11:25:50.609Z,52.64
2022-10-24T11:28:36.712Z,51.08
2022-10-24T11:31:08.571Z,50.77
2022-10-24T11:33:36.950Z,49.52
2022-10-24T11:36:36.891Z,49.79
2022-10-24T11:39:07.315Z,48.61
2022-10-24T11:41:34.804Z,47.96
2022-10-24T11:44:04.125Z,47.62
2022-10-24T11:46:35.484Z,47.21
2022-10-24T11:49:12.198Z,47.28
2022-10-24T11:51:40.937Z,47.01
2022-10-24T11:54:17.599Z,46.86
2022-10-24T11:56:47.060Z,47.16
2022-10-24T11:59:24.320Z,47.04
2022-10-24T12:01:51.602Z,47.70
2022-10-24T12:04:37.772Z,46.11
2022-10-24T12:07:04.946Z,46.28
2022-10-24T12:09:55.697Z,46.45
2022-10-24T12:12:35.963Z,45.51
2022-10-24T12:15:06.566Z,46.13
2022-10-24T12:17:47.528Z,48.70
2022-10-24T12:20:18.188Z,47.10
2022-10-24T12:22:45.680Z,47.27
2022-10-24T12:25:21.298Z,47.84
2022-10-24T12:27:53.083Z,48.87
2022-10-24T12:30:21.803Z,50.17
2022-10-24T12:32:51.143Z,50.68
2022-10-24T12:35:31.637Z,50.97
2022-10-24T12:37:59.562Z,49.20
2022-10-24T12:40:45.262Z,49.04
2022-10-24T12:43:17.545Z,49.79
2022-10-24T12:45:44.729Z,49.16
2022-10-24T12:48:31.031Z,48.88
2022-10-24T12:50:58.484Z,49.62
2022-10-24T12:53:35.867Z,50.68
2022-10-24T12:56:11.469Z,48.70
2022-10-24T12:58:39.578Z,47.98
2022-10-24T13:01:10.390Z,47.60
2022-10-24T13:03:43.631Z,48.18
2022-10-24T13:06:25.565Z,46.55
2022-10-24T13:08:55.707Z,47.35
2022-10-24T13:11:42.010Z,46.93
2022-10-24T13:14:24.295Z,47.22
2022-10-24T13:17:07.304Z,45.69
2022-10-24T13:19:34.471Z,45.57
2022-10-24T13:22:02.272Z,46.90
2022-10-24T13:24:29.482Z,45.94
2022-10-24T13:26:56.808Z,46.58
2022-10-24T13:29:24.241Z,46.59
2022-10-24T13:31:52.226Z,45.61
2022-10-24T13:34:25.216Z,45.71
2022-10-24T13:37:11.075Z,46.48
2022-10-24T13:39:44.965Z,46.26
2022-10-24T13:42:18.463Z,49.60
2022-10-24T13:44:48.459Z,47.10
2022-10-24T13:47:35.834Z,47.05
2022-10-24T13:50:22.465Z,47.16
2022-10-24T13:52:52.560Z,47.15
2022-10-24T13:55:22.878Z,46.87
2022-10-24T13:57:54.567Z,47.38
2022-10-24T14:00:21.983Z,46.64
2022-10-24T14:02:49.790Z,46.16
2022-10-24T14:05:23.605Z,46.44
2022-10-24T14:07:51.082Z,46.03
2022-10-24T14:10:19.779Z,46.07
2022-10-24T14:12:47.450Z,45.85
2022-10-24T14:15:19.312Z,46.22
2022-10-24T14:18:08.567Z,45.49
2022-10-24T14:20:37.193Z,46.16
2022-10-24T14:23:23.084Z,47.27
2022-10-24T14:26:01.769Z,46.41
2022-10-24T14:28:33.383Z,45.80
2022-10-24T14:31:01.914Z,45.78
2022-10-24T14:33:30.084Z,46.00
2022-10-24T14:35:58.712Z,46.13
2022-10-24T14:38:26.475Z,45.95
2022-10-24T14:41:07.792Z,45.82
2022-10-24T14:43:37.392Z,45.46
2022-10-24T14:46:18.114Z,46.27
2022-10-24T14:48:47.040Z,45.21
2022-10-24T14:51:34.960Z,45.07
2022-10-24T14:54:07.812Z,44.98
2022-10-24T14:56:35.722Z,44.96
2022-10-24T14:59:03.938Z,46.02
2022-10-24T15:01:31.547Z,45.88
2022-10-24T15:04:02.532Z,45.53
2022-10-24T15:06:40.084Z,45.90
2022-10-24T15:09:10.471Z,45.15
2022-10-24T15:11:38.796Z,46.25
2022-10-24T15:14:07.215Z,46.20
2022-10-24T15:16:35.741Z,45.37
2022-10-24T15:19:04.134Z,45.37
2022-10-24T15:21:32.946Z,44.91
2022-10-24T15:24:00.329Z,44.35
2022-10-24T15:26:32.257Z,45.18
2022-10-24T15:29:02.343Z,44.57
2022-10-24T15:31:30.658Z,45.06
2022-10-24T15:33:57.812Z,44.75
2022-10-24T15:36:24.946Z,44.34
2022-10-24T15:39:06.020Z,44.73
2022-10-24T15:41:33.236Z,44.72
2022-10-24T15:44:00.861Z,44.55
2022-10-24T15:46:28.784Z,44.34
2022-10-24T15:48:56.016Z,45.68
2022-10-24T15:51:24.179Z,44.36
2022-10-24T15:53:51.503Z,43.93
2022-10-24T15:56:18.923Z,45.35
2022-10-24T16:01:25.592Z,47.08
2022-10-24T16:03:53.427Z,45.30
2022-10-24T16:06:21.973Z,44.95
2022-10-24T16:08:49.705Z,45.13
2022-10-24T16:11:17.259Z,45.80
2022-10-24T16:13:44.676Z,45.03
2022-10-24T16:16:14.301Z,44.88
2022-10-24T16:18:41.836Z,45.34
2022-10-24T16:21:11.177Z,46.16
2022-10-24T16:23:38.428Z,47.07
2022-10-24T16:26:06.229Z,47.60
2022-10-24T16:28:33.494Z,46.90
2022-10-24T16:31:00.669Z,45.93
2022-10-24T16:33:28.410Z,46.90
2022-10-24T16:35:55.622Z,47.72
2022-10-24T16:38:23.119Z,47.48
2022-10-24T16:40:50.712Z,47.14
2022-10-24T16:43:18.932Z,46.52
2022-10-24T16:45:53.042Z,46.14
2022-10-24T16:48:20.874Z,45.84
2022-10-24T16:50:48.141Z,45.39
2022-10-24T16:53:18.306Z,45.09
2022-10-24T16:55:49.946Z,44.83
2022-10-24T16:58:17.345Z,44.64
2022-10-24T17:00:44.790Z,46.09
2022-10-24T17:03:12.640Z,46.02
2022-10-24T17:05:39.865Z,45.11
2022-10-24T17:08:07.405Z,45.49
2022-10-24T17:10:34.873Z,45.64
2022-10-24T17:13:02.314Z,45.10
2022-10-24T17:15:29.603Z,44.78
2022-10-24T17:17:57.053Z,44.62
2022-10-24T17:20:24.610Z,44.74
2022-10-24T17:22:52.312Z,45.45
2022-10-24T17:25:21.466Z,45.32
2022-10-24T17:27:51.048Z,45.06
2022-10-24T17:30:20.141Z,44.69
2022-10-24T17:32:48.093Z,44.82
2022-10-24T17:35:16.317Z,44.61
2022-10-24T17:37:46.968Z,44.08
2022-10-24T17:40:16.368Z,44.16
2022-10-24T17:42:48.289Z,44.04
2022-10-24T17:45:17.331Z,43.66
2022-10-24T17:50:17.501Z,43.94
2022-10-24T17:52:50.615Z,43.81
2022-10-24T17:55:44.603Z,43.43
2022-10-24T17:58:10.746Z,43.18
2022-10-24T18:00:38.961Z,44.20
2022-10-24T18:03:09.776Z,43.44
2022-10-24T18:05:38.814Z,43.20
2022-10-24T18:08:07.304Z,43.12
2022-10-24T18:10:36.666Z,42.75
2022-10-24T18:13:03.866Z,42.74
2022-10-24T18:15:31.744Z,42.69
2022-10-24T18:17:59.748Z,42.64
2022-10-24T18:20:27.416Z,42.90
2022-10-24T18:22:55.230Z,43.39
2022-10-24T18:25:23.621Z,43.29
2022-10-24T18:27:51.504Z,44.09
2022-10-24T18:30:20.809Z,46.34
2022-10-24T18:32:49.312Z,45.71
2022-10-24T18:35:17.262Z,45.46
2022-10-24T18:37:45.009Z,44.94
2022-10-24T18:40:16.082Z,44.75
2022-10-24T18:42:48.334Z,44.75
2022-10-24T18:45:23.358Z,45.21
2022-10-24T18:47:51.180Z,44.79
2022-10-24T18:50:20.595Z,44.65
2022-10-24T18:53:00.113Z,44.88
2022-10-24T18:55:28.828Z,44.45
2022-10-24T18:57:56.569Z,44.73
2022-10-24T19:00:25.487Z,45.38
2022-10-24T19:02:59.048Z,47.21
2022-10-24T19:05:52.009Z,47.51
2022-10-24T19:08:24.239Z,47.72
2022-10-24T19:10:53.338Z,47.23
2022-10-24T19:13:21.001Z,48.93
2022-10-24T19:16:00.458Z,47.75
2022-10-24T19:18:28.828Z,47.44
2022-10-24T19:20:56.926Z,46.86
2022-10-24T19:23:25.215Z,46.32
2022-10-24T19:25:52.902Z,46.66
2022-10-24T19:28:20.983Z,46.08
2022-10-24T19:30:48.652Z,45.54
2022-10-24T19:33:16.513Z,45.15
2022-10-24T19:35:47.866Z,45.31
2022-10-24T19:38:15.609Z,45.62
2022-10-24T19:40:53.338Z,45.47
2022-10-24T19:43:21.704Z,45.28
2022-10-24T19:45:50.824Z,45.09
2022-10-24T19:48:33.703Z,44.60
2022-10-24T19:51:02.010Z,45.90
2022-10-24T19:53:29.550Z,45.09
2022-10-24T19:55:57.156Z,44.90
2022-10-24T19:58:24.828Z,45.04
2022-10-24T20:00:52.686Z,45.27
2022-10-24T20:03:20.674Z,46.91
2022-10-24T20:05:48.583Z,46.91
2022-10-24T20:08:16.387Z,46.43
2022-10-24T20:10:50.364Z,46.30
2022-10-24T20:13:17.943Z,46.26
2022-10-24T20:15:52.223Z,46.91
2022-10-24T20:18:19.697Z,46.66
2022-10-24T20:20:48.710Z,46.57
2022-10-24T20:23:17.049Z,46.86
2022-10-24T20:25:44.887Z,46.28
2022-10-24T20:28:14.100Z,46.86
2022-10-24T20:30:42.658Z,48.11
2022-10-24T20:33:10.484Z,49.56
2022-10-24T20:35:38.546Z,52.50
2022-10-24T20:38:05.846Z,50.51
2022-10-24T20:40:33.119Z,51.41
2022-10-24T20:43:04.947Z,50.24
2022-10-24T20:45:34.956Z,51.05
2022-10-24T20:48:02.579Z,50.36
2022-10-24T20:50:29.749Z,50.69
2022-10-24T20:52:57.128Z,50.88
2022-10-24T20:55:39.540Z,51.39
2022-10-24T20:58:13.886Z,53.50
2022-10-24T21:03:12.153Z,51.57
2022-10-24T21:05:39.716Z,51.46
2022-10-24T21:08:07.396Z,51.28
2022-10-24T21:10:35.109Z,50.83
2022-10-24T21:13:02.362Z,52.35
2022-10-24T21:15:30.426Z,50.74
2022-10-24T21:17:57.989Z,49.85
2022-10-24T21:20:25.201Z,49.44
2022-10-24T21:22:52.691Z,48.69
2022-10-24T21:25:19.885Z,48.21
2022-10-24T21:27:47.216Z,49.00
2022-10-24T21:30:15.065Z,49.31
2022-10-24T21:32:42.318Z,48.57
2022-10-24T21:35:09.518Z,47.67
2022-10-24T21:37:37.084Z,47.54
2022-10-24T21:40:04.455Z,47.76
2022-10-24T21:42:33.237Z,47.70
2022-10-24T21:45:00.988Z,47.42
2022-10-24T21:47:28.271Z,47.13
2022-10-24T21:49:55.491Z,48.80
2022-10-24T21:52:23.286Z,48.11
2022-10-24T21:54:50.502Z,47.45
2022-10-24T21:57:17.662Z,46.83
2022-10-24T21:59:45.210Z,46.35
2022-10-24T22:02:12.512Z,46.11
2022-10-24T22:04:40.059Z,47.23
2022-10-24T22:07:07.308Z,47.08
2022-10-24T22:09:34.474Z,46.79
2022-10-24T22:12:01.965Z,47.47
2022-10-24T22:14:29.127Z,48.58
2022-10-24T22:16:56.255Z,47.67
2022-10-24T22:19:23.691Z,51.33
2022-10-24T22:21:50.945Z,48.32
2022-10-24T22:24:19.140Z,47.85
2022-10-24T22:26:46.818Z,47.78
2022-10-24T22:29:15.940Z,47.68
2022-10-24T22:31:43.363Z,47.96
2022-10-24T22:34:11.597Z,47.11
2022-10-24T22:36:48.186Z,47.41
2022-10-24T22:39:19.400Z,47.54
2022-10-24T22:41:47.033Z,46.29
2022-10-24T22:44:15.197Z,47.71
2022-10-24T22:46:42.554Z,47.30
2022-10-24T22:49:15.992Z,47.19
2022-10-24T22:51:43.519Z,46.83
2022-10-24T22:54:14.720Z,45.27
2022-10-24T22:56:42.145Z,46.07
2022-10-24T22:59:09.747Z,46.32
2022-10-24T23:01:49.220Z,46.71
2022-10-24T23:04:25.106Z,46.71
2022-10-24T23:07:01.097Z,47.49
2022-10-24T23:09:28.558Z,47.35
2022-10-24T23:11:55.738Z,47.72
2022-10-24T23:14:23.066Z,48.77
2022-10-24T23:16:57.116Z,48.57
2022-10-24T23:19:25.705Z,48.00
2022-10-24T23:21:54.958Z,47.42
2022-10-24T23:24:22.215Z,49.21
2022-10-24T23:26:59.108Z,48.01
2022-10-24T23:29:26.606Z,48.56
2022-10-24T23:31:53.874Z,47.72
2022-10-24T23:34:21.176Z,48.12
2022-10-24T23:36:48.658Z,47.60
2022-10-24T23:39:16.072Z,46.98
2022-10-24T23:41:43.382Z,49.35
2022-10-24T23:44:11.276Z,47.63
2022-10-24T23:46:39.095Z,46.81
2022-10-24T23:49:09.992Z,47.23
2022-10-24T23:51:49.719Z,47.46
2022-10-24T23:54:16.867Z,47.78
2022-10-24T23:56:44.459Z,48.69
2022-10-24T23:59:11.633Z,48.79
